Time;durP1;ratioP1;P1;durP2;ratioP2;P2;SDS_P1;SDS_P2;PMS_P1;PMS_P2;Temp;Humidity;BMP_temperature;BMP_pressure;BME280_temperature;BME280_humidity;BME280_pressure;Samples;Min_cycle;Max_cycle;Signal;HPM_P1;HPM_P2
2021/05/08 00:00:07;;;;;;;5.63;3.83;;;3.90;91.70;;;;;;5000979;28;20757;-70
2021/05/08 00:02:33;;;;;;;7.37;3.37;;;3.90;92.10;;;;;;5012992;28;20125;-70
2021/05/08 00:04:59;;;;;;;6.73;2.90;;;3.90;91.90;;;;;;5011024;28;20120;-69
2021/05/08 00:07:25;;;;;;;4.97;3.07;;;3.90;91.90;;;;;;5012164;28;20489;-69
2021/05/08 00:09:51;;;;;;;6.03;3.33;;;3.80;92.10;;;;;;4986305;28;20042;-70
2021/05/08 00:12:17;;;;;;;5.57;3.17;;;3.80;92.00;;;;;;5006583;28;20033;-70
2021/05/08 00:14:45;;;;;;;7.00;3.47;;;3.80;92.00;;;;;;4986067;28;20124;-70
2021/05/08 00:17:11;;;;;;;5.37;3.70;;;3.60;92.20;;;;;;5001518;28;20521;-69
2021/05/08 00:19:37;;;;;;;3.93;3.13;;;3.70;92.20;;;;;;4988334;28;20040;-70
2021/05/08 00:22:03;;;;;;;5.70;3.57;;;3.50;92.30;;;;;;4977788;28;20052;-70
2021/05/08 00:24:34;;;;;;;6.63;3.17;;;3.50;92.20;;;;;;5002810;28;20034;-70
2021/05/08 00:27:00;;;;;;;6.27;3.37;;;3.50;92.40;;;;;;5004299;28;20103;-69
2021/05/08 00:29:26;;;;;;;7.17;4.00;;;3.50;92.40;;;;;;5003061;28;20053;-69
2021/05/08 00:31:52;;;;;;;7.77;3.93;;;3.50;92.50;;;;;;5004557;28;20519;-68
2021/05/08 00:34:17;;;;;;;5.83;3.80;;;3.40;92.40;;;;;;5001287;28;20097;-69
2021/05/08 00:36:43;;;;;;;7.90;3.80;;;3.30;92.40;;;;;;5005626;28;20064;-68
2021/05/08 00:39:09;;;;;;;7.37;4.07;;;3.30;92.40;;;;;;5022105;28;20109;-69
2021/05/08 00:41:36;;;;;;;7.40;4.80;;;3.20;92.50;;;;;;4989919;28;20044;-69
2021/05/08 00:44:04;;;;;;;9.80;4.43;;;3.20;93.10;;;;;;4989493;28;20038;-70
2021/05/08 00:46:30;;;;;;;7.40;4.50;;;3.20;92.70;;;;;;5003997;28;20425;-70
2021/05/08 00:48:57;;;;;;;7.23;4.30;;;3.20;93.20;;;;;;5003136;28;20056;-70
2021/05/08 00:51:23;;;;;;;8.60;4.20;;;3.20;93.00;;;;;;5006015;28;20045;-69
2021/05/08 00:53:50;;;;;;;7.17;4.13;;;3.10;93.00;;;;;;5011200;28;20473;-70
2021/05/08 00:56:17;;;;;;;7.87;4.67;;;3.10;92.90;;;;;;5003966;28;20436;-69
2021/05/08 00:58:42;;;;;;;7.10;4.20;;;3.10;92.90;;;;;;5037615;28;20052;-70
2021/05/08 01:01:15;;;;;;;5.73;4.30;;;3.00;92.90;;;;;;5005910;28;20038;-70
2021/05/08 01:03:44;;;;;;;8.47;4.70;;;3.00;93.00;;;;;;5000624;28;20111;-71
2021/05/08 01:06:11;;;;;;;7.90;4.57;;;2.90;93.00;;;;;;5004923;28;20369;-70
2021/05/08 01:08:37;;;;;;;8.33;4.33;;;2.90;93.20;;;;;;5003810;28;20304;-70
2021/05/08 01:11:04;;;;;;;7.47;4.57;;;2.90;93.10;;;;;;5003915;28;20132;-71
2021/05/08 01:13:31;;;;;;;9.43;5.07;;;2.80;93.20;;;;;;4969251;28;20123;-70
2021/05/08 01:15:58;;;;;;;9.00;4.67;;;2.90;93.90;;;;;;4999532;28;20432;-69
2021/05/08 01:18:25;;;;;;;6.63;4.83;;;2.90;93.60;;;;;;5005189;28;20100;-70
2021/05/08 01:20:51;;;;;;;8.33;4.43;;;2.80;93.60;;;;;;5003773;28;20053;-70
2021/05/08 01:23:18;;;;;;;7.80;4.37;;;2.80;93.30;;;;;;5022679;28;20527;-70
2021/05/08 01:25:44;;;;;;;9.13;4.33;;;2.80;93.40;;;;;;4977459;28;20400;-70
2021/05/08 01:28:10;;;;;;;7.73;5.27;;;2.70;93.20;;;;;;5015721;28;20037;-70
2021/05/08 01:30:37;;;;;;;6.40;5.00;;;2.60;93.20;;;;;;5007000;28;20042;-70
2021/05/08 01:33:05;;;;;;;8.43;4.47;;;2.50;93.40;;;;;;5015285;28;20029;-69
2021/05/08 01:35:32;;;;;;;7.03;4.73;;;2.50;93.50;;;;;;5022815;28;20408;-69
2021/05/08 01:37:59;;;;;;;9.83;4.43;;;2.50;93.60;;;;;;5022390;28;20548;-69
2021/05/08 01:40:36;;;;;;;8.10;4.70;;;2.50;93.50;;;;;;5021931;28;20037;-69
2021/05/08 01:43:02;;;;;;;15.30;5.87;;;2.40;93.60;;;;;;5005854;28;20125;-69
2021/05/08 01:45:28;;;;;;;9.73;5.43;;;2.40;93.60;;;;;;5008533;28;20065;-69
2021/05/08 01:47:55;;;;;;;6.73;5.17;;;2.40;94.00;;;;;;5023229;28;20043;-70
2021/05/08 01:50:24;;;;;;;10.53;6.30;;;2.30;93.80;;;;;;4996672;28;20655;-70
2021/05/08 01:52:50;;;;;;;8.00;5.20;;;2.30;94.20;;;;;;5024093;28;20043;-69
2021/05/08 01:55:19;;;;;;;9.00;5.53;;;2.40;93.90;;;;;;4994942;28;20519;-70
2021/05/08 01:57:50;;;;;;;10.03;6.30;;;2.30;94.00;;;;;;5004450;28;20763;-70
2021/05/08 02:00:19;;;;;;;12.87;6.57;;;2.30;94.00;;;;;;5023093;28;20080;-70
2021/05/08 02:02:46;;;;;;;8.30;5.77;;;2.40;94.10;;;;;;5024623;28;20073;-68
2021/05/08 02:05:12;;;;;;;9.50;5.97;;;2.40;93.90;;;;;;5009186;28;20053;-68
2021/05/08 02:07:38;;;;;;;8.17;6.33;;;2.30;93.90;;;;;;5026582;28;20045;-68
2021/05/08 02:10:10;;;;;;;10.03;6.50;;;2.30;94.30;;;;;;5011141;28;20400;-68
2021/05/08 02:12:38;;;;;;;7.87;6.10;;;2.30;94.50;;;;;;5020156;28;20041;-68
2021/05/08 02:15:08;;;;;;;7.70;5.67;;;2.30;94.40;;;;;;5008336;28;20038;-69
2021/05/08 02:17:34;;;;;;;11.00;5.53;;;2.20;94.30;;;;;;5010243;28;20033;-68
2021/05/08 02:20:00;;;;;;;10.60;6.33;;;2.20;94.50;;;;;;5031197;28;20045;-68
2021/05/08 02:22:26;;;;;;;7.90;6.40;;;2.20;94.20;;;;;;5007705;28;20128;-69
2021/05/08 02:24:53;;;;;;;10.90;5.73;;;2.30;94.30;;;;;;5006905;28;20442;-68
2021/05/08 02:27:19;;;;;;;11.03;6.63;;;2.30;94.30;;;;;;5007314;28;20076;-71
2021/05/08 02:29:47;;;;;;;8.57;6.20;;;2.30;94.50;;;;;;4992918;28;20049;-69
2021/05/08 02:32:13;;;;;;;10.37;6.90;;;2.30;94.20;;;;;;5016021;28;20515;-68
2021/05/08 02:34:38;;;;;;;10.60;7.17;;;2.40;94.30;;;;;;5010174;28;20045;-68
2021/05/08 02:37:07;;;;;;;12.00;7.63;;;2.40;94.30;;;;;;5010184;28;20042;-69
2021/05/08 02:39:33;;;;;;;10.20;7.23;;;2.30;94.20;;;;;;5024165;28;20192;-68
2021/05/08 02:42:01;;;;;;;10.37;6.77;;;2.30;94.00;;;;;;5022227;28;20041;-69
2021/05/08 02:44:27;;;;;;;13.40;9.13;;;2.40;94.30;;;;;;4993923;28;20049;-68
2021/05/08 02:46:53;;;;;;;10.33;6.80;;;2.30;94.10;;;;;;5008068;28;20126;-69
2021/05/08 02:49:19;;;;;;;11.43;7.07;;;2.30;94.10;;;;;;4986914;28;20030;-68
2021/05/08 02:51:45;;;;;;;10.47;8.03;;;2.30;94.20;;;;;;4980994;28;20501;-68
2021/05/08 02:54:11;;;;;;;19.97;11.07;;;2.40;94.20;;;;;;4983733;28;20042;-68
2021/05/08 02:56:37;;;;;;;15.40;11.33;;;2.40;94.30;;;;;;5002734;28;20129;-68
2021/05/08 02:59:03;;;;;;;13.60;11.13;;;2.50;94.50;;;;;;4973773;28;20147;-68
2021/05/08 03:01:29;;;;;;;13.27;10.13;;;2.60;94.60;;;;;;4985815;28;20130;-68
2021/05/08 03:03:55;;;;;;;20.10;12.93;;;2.70;94.50;;;;;;4980244;28;20125;-68
2021/05/08 03:06:21;;;;;;;16.90;12.03;;;2.80;94.40;;;;;;4990469;28;20045;-69
2021/05/08 03:08:46;;;;;;;14.57;10.93;;;2.80;94.30;;;;;;5017549;28;20038;-69
2021/05/08 03:11:13;;;;;;;17.20;12.73;;;2.80;94.40;;;;;;5003797;28;20045;-69
2021/05/08 03:13:40;;;;;;;21.00;13.03;;;2.80;94.30;;;;;;4987852;28;20037;-69
2021/05/08 03:16:06;;;;;;;15.07;12.10;;;2.80;94.70;;;;;;5025022;28;20046;-69
2021/05/08 03:18:35;;;;;;;16.37;12.27;;;2.90;94.80;;;;;;4999567;28;20464;-69
2021/05/08 03:21:01;;;;;;;14.33;11.60;;;2.90;94.50;;;;;;4996773;28;20045;-70
2021/05/08 03:23:30;;;;;;;23.27;15.67;;;2.90;94.50;;;;;;4991559;28;20037;-70
2021/05/08 03:25:56;;;;;;;16.43;11.43;;;2.90;94.50;;;;;;4992439;28;20038;-70
2021/05/08 03:28:22;;;;;;;19.13;14.10;;;2.90;94.50;;;;;;4990339;28;20042;-70
2021/05/08 03:30:49;;;;;;;18.70;13.87;;;2.90;94.50;;;;;;4981007;28;20065;-70
2021/05/08 03:33:15;;;;;;;22.43;13.87;;;2.90;94.70;;;;;;5005193;28;20121;-69
2021/05/08 03:35:41;;;;;;;20.60;14.87;;;3.00;94.80;;;;;;4988284;28;20497;-70
2021/05/08 03:38:07;;;;;;;19.30;14.70;;;3.00;95.00;;;;;;5008965;28;20149;-70
2021/05/08 03:40:33;;;;;;;20.57;15.23;;;3.10;95.10;;;;;;4986988;28;20041;-70
2021/05/08 03:43:02;;;;;;;23.03;14.37;;;3.10;95.10;;;;;;5009152;28;20045;-70
2021/05/08 03:45:28;;;;;;;19.47;13.93;;;3.20;95.00;;;;;;4999415;28;20113;-69
2021/05/08 03:47:54;;;;;;;17.53;13.40;;;3.20;95.20;;;;;;4975741;28;20125;-70
2021/05/08 03:50:20;;;;;;;17.33;13.73;;;3.20;95.10;;;;;;5018898;28;20053;-70
2021/05/08 03:52:48;;;;;;;17.20;13.67;;;3.20;95.00;;;;;;5003236;28;20049;-70
2021/05/08 03:55:15;;;;;;;19.13;14.13;;;3.20;94.80;;;;;;4974689;28;20038;-70
2021/05/08 03:57:41;;;;;;;16.83;13.33;;;3.20;95.30;;;;;;5019106;28;20117;-70
2021/05/08 04:00:07;;;;;;;19.47;13.40;;;3.20;95.00;;;;;;5002288;28;20184;-70
2021/05/08 04:02:34;;;;;;;17.07;13.27;;;3.20;95.00;;;;;;4999063;28;20036;-71
2021/05/08 04:05:00;;;;;;;19.87;14.70;;;3.20;94.90;;;;;;5005865;28;20046;-70
2021/05/08 04:07:26;;;;;;;16.53;13.60;;;3.20;95.10;;;;;;4987285;28;20113;-69
2021/05/08 04:09:52;;;;;;;19.67;13.17;;;3.20;95.00;;;;;;4985694;28;20092;-70
2021/05/08 04:12:21;;;;;;;19.57;14.70;;;3.20;95.10;;;;;;4983881;28;20042;-69
2021/05/08 04:14:47;;;;;;;16.97;14.27;;;3.20;95.30;;;;;;5018944;28;20046;-70
2021/05/08 04:17:15;;;;;;;19.33;14.47;;;3.20;94.90;;;;;;4990876;28;20045;-70
2021/05/08 04:19:41;;;;;;;19.67;13.97;;;3.20;95.10;;;;;;4985708;28;20054;-70
2021/05/08 04:22:07;;;;;;;20.13;14.57;;;3.30;95.00;;;;;;5002168;28;20049;-70
2021/05/08 04:24:33;;;;;;;18.23;15.03;;;3.30;95.00;;;;;;5026294;28;20076;-70
2021/05/08 04:26:59;;;;;;;19.87;14.67;;;3.30;95.00;;;;;;5025336;28;20115;-70
2021/05/08 04:29:25;;;;;;;19.87;15.07;;;3.30;95.00;;;;;;5012463;28;20511;-70
2021/05/08 04:32:01;;;;;;;18.67;14.33;;;3.30;95.00;;;;;;5004616;28;20041;-70
2021/05/08 04:34:28;;;;;;;19.77;15.67;;;3.30;94.90;;;;;;5016743;28;20034;-70
2021/05/08 04:36:53;;;;;;;17.63;15.03;;;3.30;94.90;;;;;;5021700;28;20040;-70
2021/05/08 04:39:19;;;;;;;19.00;15.60;;;3.30;94.90;;;;;;5019159;28;20117;-71
2021/05/08 04:41:46;;;;;;;19.43;15.77;;;3.40;95.00;;;;;;4998128;28;20042;-70
2021/05/08 04:44:12;;;;;;;18.77;15.13;;;3.50;94.90;;;;;;4998568;28;20385;-70
2021/05/08 04:46:37;;;;;;;18.27;15.33;;;3.40;95.10;;;;;;5026950;28;20047;-70
2021/05/08 04:49:03;;;;;;;19.03;15.00;;;3.50;94.90;;;;;;5000515;28;20033;-70
2021/05/08 04:51:29;;;;;;;21.30;15.50;;;3.50;94.90;;;;;;5014584;28;20068;-70
2021/05/08 04:53:55;;;;;;;18.73;14.40;;;3.50;95.00;;;;;;5028668;28;20052;-70
2021/05/08 04:56:24;;;;;;;20.03;13.97;;;3.50;94.90;;;;;;4995338;28;20739;-70
2021/05/08 04:58:51;;;;;;;17.40;14.07;;;3.50;94.80;;;;;;5022339;28;21225;-70
2021/05/08 05:01:17;;;;;;;20.00;15.30;;;3.50;94.80;;;;;;4990600;28;20404;-70
2021/05/08 05:03:43;;;;;;;21.77;16.13;;;3.50;94.80;;;;;;5022377;28;20120;-70
2021/05/08 05:06:09;;;;;;;19.00;14.50;;;3.50;94.80;;;;;;5022512;28;20045;-70
2021/05/08 05:08:35;;;;;;;18.13;15.90;;;3.60;94.80;;;;;;5022871;28;20034;-70
2021/05/08 05:11:01;;;;;;;19.93;15.37;;;3.70;94.70;;;;;;5012554;28;20497;-70
2021/05/08 05:13:29;;;;;;;20.17;15.00;;;3.70;94.80;;;;;;5023378;28;20112;-70
2021/05/08 05:15:55;;;;;;;21.67;16.53;;;3.80;94.70;;;;;;5024944;28;20144;-70
2021/05/08 05:18:21;;;;;;;18.50;14.47;;;3.90;94.70;;;;;;5013630;28;20180;-70
2021/05/08 05:20:47;;;;;;;19.53;15.53;;;3.90;94.50;;;;;;5018229;28;20152;-69
2021/05/08 05:23:14;;;;;;;19.03;15.63;;;4.00;94.50;;;;;;4995902;28;20040;-69
2021/05/08 05:25:40;;;;;;;18.93;15.33;;;4.10;94.40;;;;;;5021643;28;20038;-70
2021/05/08 05:28:26;;;;;;;17.77;14.70;;;4.20;94.30;;;;;;5004913;28;20041;-70
2021/05/08 05:30:52;;;;;;;20.67;15.37;;;4.30;94.30;;;;;;5024298;28;20069;-70
2021/05/08 05:33:19;;;;;;;19.00;14.87;;;4.30;94.10;;;;;;5006812;28;20099;-69
2021/05/08 05:35:49;;;;;;;18.40;14.40;;;4.40;94.00;;;;;;4993707;28;20045;-70
2021/05/08 05:38:16;;;;;;;17.98;15.45;;;4.50;94.00;;;;;;5021933;28;20041;-70
2021/05/08 05:40:43;;;;;;;18.47;14.60;;;4.60;93.90;;;;;;5022210;28;20042;-70
2021/05/08 05:43:09;;;;;;;20.07;14.03;;;4.80;93.90;;;;;;5014496;28;20110;-70
2021/05/08 05:45:36;;;;;;;18.07;14.93;;;4.90;93.70;;;;;;4999357;28;20370;-70
2021/05/08 05:48:03;;;;;;;18.57;14.03;;;5.00;93.50;;;;;;5018595;28;20052;-71
2021/05/08 05:50:31;;;;;;;16.30;14.53;;;5.10;93.30;;;;;;5023160;28;20041;-71
2021/05/08 05:52:59;;;;;;;17.40;13.10;;;5.30;93.20;;;;;;4996308;28;20495;-71
2021/05/08 05:55:25;;;;;;;15.00;13.40;;;5.40;93.00;;;;;;5019669;28;20037;-71
2021/05/08 05:57:59;;;;;;;15.93;13.60;;;5.40;93.00;;;;;;5009134;28;20048;-71
2021/05/08 06:00:26;;;;;;;17.63;14.00;;;5.60;92.80;;;;;;5024267;28;20059;-71
2021/05/08 06:02:52;;;;;;;14.63;13.20;;;5.70;92.60;;;;;;5021323;28;20044;-71
2021/05/08 06:05:18;;;;;;;16.53;13.43;;;5.70;92.30;;;;;;5024854;28;21110;-71
2021/05/08 06:07:44;;;;;;;17.00;13.70;;;5.80;92.30;;;;;;5022987;28;20124;-71
2021/05/08 06:10:11;;;;;;;15.73;13.23;;;5.90;92.20;;;;;;5010374;28;20029;-71
2021/05/08 06:12:38;;;;;;;17.23;14.60;;;6.00;92.00;;;;;;5022580;28;20041;-70
2021/05/08 06:15:09;;;;;;;18.47;14.53;;;6.10;91.80;;;;;;5019251;28;20049;-69
2021/05/08 06:17:35;;;;;;;15.37;13.70;;;6.10;91.70;;;;;;5022629;28;20033;-70
2021/05/08 06:20:06;;;;;;;16.00;12.47;;;6.20;91.50;;;;;;5019908;28;20045;-70
2021/05/08 06:22:32;;;;;;;17.20;13.40;;;6.30;91.50;;;;;;4982305;28;20445;-70
2021/05/08 06:24:58;;;;;;;15.43;13.10;;;6.40;91.60;;;;;;4986218;28;20034;-70
2021/05/08 06:27:24;;;;;;;13.53;12.13;;;6.60;91.30;;;;;;4998990;28;20579;-70
2021/05/08 06:29:51;;;;;;;14.90;11.67;;;6.70;91.20;;;;;;5003309;28;20046;-70
2021/05/08 06:32:17;;;;;;;13.10;11.60;;;6.80;91.10;;;;;;4981570;28;20041;-70
2021/05/08 06:34:43;;;;;;;15.13;12.57;;;6.90;90.80;;;;;;4989205;28;20128;-70
2021/05/08 06:37:09;;;;;;;19.80;12.53;;;7.10;90.60;;;;;;4966638;28;20038;-70
2021/05/08 06:39:35;;;;;;;14.73;12.73;;;7.30;90.40;;;;;;4982779;28;20034;-70
2021/05/08 06:42:01;;;;;;;17.63;13.20;;;7.50;90.20;;;;;;4971783;28;20046;-70
2021/05/08 06:44:30;;;;;;;17.73;12.33;;;7.60;89.60;;;;;;5006764;28;20042;-70
2021/05/08 06:46:56;;;;;;;14.77;12.50;;;7.80;88.90;;;;;;5006638;28;20137;-70
2021/05/08 06:49:22;;;;;;;15.57;11.90;;;7.90;87.90;;;;;;5002887;28;20038;-70
2021/05/08 06:51:49;;;;;;;14.93;12.07;;;8.00;87.80;;;;;;5004811;28;20504;-70
2021/05/08 06:54:14;;;;;;;16.93;12.90;;;8.20;87.80;;;;;;4989676;28;20042;-70
2021/05/08 06:56:41;;;;;;;16.47;13.63;;;8.30;88.00;;;;;;5003312;28;20029;-70
2021/05/08 06:59:07;;;;;;;17.80;14.00;;;8.40;87.40;;;;;;5004455;28;20048;-70
2021/05/08 07:01:35;;;;;;;18.07;14.77;;;8.50;86.70;;;;;;5003136;28;20116;-70
2021/05/08 07:04:02;;;;;;;17.17;12.60;;;8.50;86.30;;;;;;4986179;28;20104;-70
2021/05/08 07:06:28;;;;;;;17.73;13.73;;;8.60;86.30;;;;;;4986879;28;20042;-70
2021/05/08 07:08:54;;;;;;;16.50;13.73;;;8.80;86.10;;;;;;4992335;28;20034;-70
2021/05/08 07:11:20;;;;;;;18.33;14.10;;;8.90;85.00;;;;;;5005200;28;20156;-71
2021/05/08 07:13:47;;;;;;;19.07;14.40;;;9.00;85.20;;;;;;5003684;28;20449;-71
2021/05/08 07:16:13;;;;;;;16.77;13.10;;;9.10;84.90;;;;;;4989145;28;20073;-71
2021/05/08 07:18:39;;;;;;;15.00;13.00;;;9.20;82.70;;;;;;5019305;28;20061;-71
2021/05/08 07:21:05;;;;;;;14.77;12.93;;;9.20;82.30;;;;;;4989036;28;20117;-70
2021/05/08 07:23:31;;;;;;;17.97;13.20;;;9.30;80.30;;;;;;5006604;28;20462;-70
2021/05/08 07:25:58;;;;;;;17.13;13.97;;;9.30;80.60;;;;;;5009323;28;20037;-71
2021/05/08 07:28:25;;;;;;;18.10;14.57;;;9.50;80.50;;;;;;5007214;28;20176;-71
2021/05/08 07:30:54;;;;;;;18.23;13.50;;;9.50;80.50;;;;;;5007198;28;20041;-71
2021/05/08 07:33:21;;;;;;;15.10;12.57;;;9.60;80.90;;;;;;5007394;28;20046;-71
2021/05/08 07:35:49;;;;;;;14.63;12.90;;;9.80;80.60;;;;;;5003184;28;20073;-71
2021/05/08 07:38:16;;;;;;;16.60;13.20;;;9.80;80.20;;;;;;5005033;28;20038;-71
2021/05/08 07:40:42;;;;;;;14.57;12.00;;;10.00;80.60;;;;;;4987502;28;20152;-71
2021/05/08 07:43:09;;;;;;;13.40;12.00;;;10.10;79.50;;;;;;5003856;28;20038;-71
2021/05/08 07:45:37;;;;;;;15.77;13.43;;;10.20;78.00;;;;;;4978712;28;20050;-71
2021/05/08 07:48:03;;;;;;;13.93;11.57;;;10.20;78.20;;;;;;5001820;28;20116;-71
2021/05/08 07:50:30;;;;;;;13.10;10.95;;;10.30;77.70;;;;;;5005910;28;20034;-71
2021/05/08 07:52:57;;;;;;;16.40;13.57;;;10.40;75.50;;;;;;5006106;28;20038;-71
2021/05/08 07:55:23;;;;;;;14.30;11.65;;;10.40;75.60;;;;;;4984975;28;20052;-71
2021/05/08 07:57:50;;;;;;;14.33;11.40;;;10.50;76.00;;;;;;5004526;28;20038;-71
2021/05/08 08:00:18;;;;;;;13.65;10.98;;;10.50;76.00;;;;;;5004194;28;20038;-71
2021/05/08 08:03:05;;;;;;;17.20;10.90;;;10.60;74.70;;;;;;4990009;28;20042;-72
2021/05/08 08:05:30;;;;;;;14.50;11.77;;;10.70;74.90;;;;;;4982730;28;20042;-71
2021/05/08 08:07:57;;;;;;;16.00;11.53;;;10.80;73.70;;;;;;5003854;28;20041;-71
2021/05/08 08:10:23;;;;;;;16.67;11.18;;;10.80;73.70;;;;;;5003116;28;20116;-71
2021/05/08 08:12:50;;;;;;;15.52;10.85;;;10.90;73.80;;;;;;5005665;28;20044;-71
2021/05/08 08:15:16;;;;;;;13.67;10.40;;;11.00;72.10;;;;;;5003382;28;20046;-72
2021/05/08 08:17:43;;;;;;;14.35;10.77;;;11.00;69.40;;;;;;5005181;28;20065;-71
2021/05/08 08:20:11;;;;;;;14.98;11.30;;;11.00;69.00;;;;;;5005077;28;20317;-70
2021/05/08 08:22:38;;;;;;;15.80;10.75;;;11.10;69.00;;;;;;4991804;28;20053;-70
2021/05/08 08:25:09;;;;;;;17.15;11.65;;;11.20;67.30;;;;;;5014329;28;20507;-70
2021/05/08 08:27:35;;;;;;;14.75;10.23;;;11.30;68.60;;;;;;4988566;28;20042;-70
2021/05/08 08:30:01;;;;;;;13.07;9.60;;;11.40;67.30;;;;;;5000812;28;20044;-70
2021/05/08 08:32:27;;;;;;;11.95;8.77;;;11.50;67.60;;;;;;5013740;28;20046;-70
2021/05/08 08:34:52;;;;;;;16.15;11.20;;;11.50;66.00;;;;;;4977347;28;20042;-72
2021/05/08 08:37:18;;;;;;;11.77;9.65;;;11.50;64.30;;;;;;5008474;28;20561;-71
2021/05/08 08:39:44;;;;;;;14.23;10.23;;;11.50;63.30;;;;;;4994132;28;20472;-71
2021/05/08 08:42:10;;;;;;;13.13;9.35;;;11.50;65.50;;;;;;4995915;28;20515;-71
2021/05/08 08:44:37;;;;;;;14.27;9.63;;;11.60;65.60;;;;;;5009352;28;20042;-71
2021/05/08 08:47:04;;;;;;;15.43;10.45;;;11.60;65.10;;;;;;4988252;28;20457;-71
2021/05/08 08:49:31;;;;;;;15.13;10.32;;;11.70;64.30;;;;;;4977217;28;20034;-72
2021/05/08 08:51:58;;;;;;;16.05;11.25;;;11.70;63.80;;;;;;4991462;28;20050;-71
2021/05/08 08:54:24;;;;;;;14.10;10.20;;;11.90;63.60;;;;;;4991190;28;20049;-72
2021/05/08 08:56:50;;;;;;;16.10;10.48;;;11.90;62.50;;;;;;5007149;28;20042;-72
2021/05/08 09:01:47;;;;;;;16.50;11.93;;;12.00;61.10;;;;;;4992403;28;20044;-72
2021/05/08 09:04:15;;;;;;;16.27;12.07;;;12.10;60.10;;;;;;4991566;28;20624;-71
2021/05/08 09:06:42;;;;;;;18.08;12.13;;;12.10;59.00;;;;;;4983127;28;20227;-70
2021/05/08 09:09:09;;;;;;;16.10;11.90;;;12.10;59.90;;;;;;4989455;28;20495;-71
2021/05/08 09:11:52;;;;;;;16.95;12.10;;;12.10;60.80;;;;;;4996539;28;20122;-71
2021/05/08 09:14:25;;;;;;;16.35;11.65;;;12.10;60.50;;;;;;4996472;28;20146;-71
2021/05/08 09:17:07;;;;;;;13.63;11.18;;;12.20;61.30;;;;;;4993575;28;20716;-72
2021/05/08 09:19:37;;;;;;;16.33;11.73;;;12.20;61.60;;;;;;4988330;28;20045;-71
2021/05/08 09:22:29;;;;;;;14.07;11.35;;;12.20;62.30;;;;;;4994390;28;20062;-72
2021/05/08 09:24:56;;;;;;;14.77;11.50;;;12.40;63.20;;;;;;4973123;28;20042;-72
2021/05/08 09:27:49;;;;;;;15.40;12.10;;;12.40;60.50;;;;;;4976198;28;20129;-72
2021/05/08 09:30:24;;;;;;;13.82;11.88;;;12.50;59.40;;;;;;4978579;28;20050;-71
2021/05/08 09:33:01;;;;;;;16.95;12.40;;;12.40;59.40;;;;;;4998364;28;20046;-73
2021/05/08 09:35:35;;;;;;;14.93;11.98;;;12.40;59.20;;;;;;5008492;28;20109;-72
2021/05/08 09:38:15;;;;;;;15.07;12.18;;;12.30;59.40;;;;;;4984919;28;20057;-72
2021/05/08 09:40:43;;;;;;;15.70;12.60;;;12.30;60.50;;;;;;4974686;28;20030;-72
2021/05/08 09:43:12;;;;;;;15.13;12.57;;;12.30;60.70;;;;;;4998289;28;20042;-72
2021/05/08 09:45:40;;;;;;;17.75;12.38;;;12.30;60.90;;;;;;4981934;28;20091;-72
2021/05/08 09:48:19;;;;;;;16.70;13.70;;;12.30;60.70;;;;;;4989471;28;20136;-72
2021/05/08 09:50:45;;;;;;;17.27;13.77;;;12.30;62.00;;;;;;4991078;28;20045;-72
2021/05/08 09:53:11;;;;;;;18.52;13.32;;;12.20;62.30;;;;;;4990116;28;20574;-72
2021/05/08 09:55:37;;;;;;;18.05;13.63;;;12.30;62.80;;;;;;5010271;28;20124;-72
2021/05/08 09:58:06;;;;;;;18.15;14.57;;;12.20;61.70;;;;;;4991826;28;20129;-71
2021/05/08 10:00:36;;;;;;;17.55;13.45;;;12.30;62.00;;;;;;4991433;28;20071;-73
2021/05/08 10:03:11;;;;;;;17.17;13.02;;;12.30;62.40;;;;;;4977968;28;20070;-73
2021/05/08 10:05:42;;;;;;;16.45;12.98;;;12.30;62.50;;;;;;4991468;28;20452;-72
2021/05/08 10:08:09;;;;;;;18.33;13.25;;;12.40;60.90;;;;;;4970733;28;20041;-71
2021/05/08 10:10:36;;;;;;;18.33;13.57;;;12.40;60.80;;;;;;4981007;28;20046;-70
2021/05/08 10:13:07;;;;;;;16.90;12.35;;;12.40;61.60;;;;;;5006504;28;20117;-71
2021/05/08 10:15:34;;;;;;;19.85;14.38;;;12.50;61.50;;;;;;5007477;28;20041;-71
2021/05/08 10:18:04;;;;;;;19.25;13.52;;;12.60;61.40;;;;;;5003524;28;20139;-72
2021/05/08 10:20:30;;;;;;;21.77;13.13;;;12.70;60.50;;;;;;5007752;28;20085;-72
2021/05/08 10:23:04;;;;;;;18.08;13.38;;;12.80;60.40;;;;;;4993245;28;20061;-72
2021/05/08 10:25:31;;;;;;;19.63;14.20;;;13.00;60.40;;;;;;5019153;28;20038;-71
2021/05/08 10:27:57;;;;;;;16.63;12.77;;;13.10;60.80;;;;;;4986097;28;20420;-71
2021/05/08 10:30:35;;;;;;;17.45;11.82;;;13.40;61.40;;;;;;4972985;28;20054;-72
2021/05/08 10:33:10;;;;;;;16.92;13.10;;;13.60;59.50;;;;;;5007769;28;20113;-71
2021/05/08 10:35:43;;;;;;;17.05;11.95;;;13.70;59.00;;;;;;5006136;28;20038;-72
2021/05/08 10:38:23;;;;;;;19.23;11.40;;;13.80;57.40;;;;;;5009295;28;20042;-72
2021/05/08 10:40:49;;;;;;;15.55;11.13;;;13.80;57.30;;;;;;5005745;28;20041;-71
2021/05/08 10:43:37;;;;;;;15.35;10.07;;;13.80;56.50;;;;;;5009213;28;20487;-71
2021/05/08 10:46:03;;;;;;;14.70;10.63;;;13.90;56.20;;;;;;4975917;28;20508;-71
2021/05/08 10:48:29;;;;;;;32.47;27.13;;;13.90;55.80;;;;;;4989214;28;20131;-71
2021/05/08 10:51:00;;;;;;;33.60;27.77;;;14.00;54.60;;;;;;5014733;28;20052;-71
2021/05/08 10:53:40;;;;;;;15.88;9.60;;;14.10;55.90;;;;;;5011978;28;20048;-71
2021/05/08 10:56:07;;;;;;;16.30;10.23;;;14.20;55.30;;;;;;4999187;28;20404;-72
2021/05/08 10:58:37;;;;;;;15.70;10.95;;;14.30;54.40;;;;;;5007027;28;20038;-72
2021/05/08 11:01:08;;;;;;;13.80;8.80;;;14.30;54.00;;;;;;5023393;28;20555;-71
2021/05/08 11:03:48;;;;;;;12.93;9.52;;;14.30;53.40;;;;;;5006376;28;20092;-71
2021/05/08 11:06:16;;;;;;;13.27;8.57;;;14.30;54.50;;;;;;4995962;28;20030;-71
2021/05/08 11:08:48;;;;;;;14.35;9.93;;;14.30;53.40;;;;;;4996686;28;20038;-71
2021/05/08 11:11:27;;;;;;;12.93;9.60;;;14.30;53.90;;;;;;4997985;28;20056;-71
2021/05/08 11:13:56;;;;;;;15.45;11.65;;;14.20;55.60;;;;;;4979107;28;20042;-71
2021/05/08 11:16:23;;;;;;;13.02;9.30;;;14.30;54.70;;;;;;4993110;28;20069;-72
2021/05/08 11:18:57;;;;;;;12.07;8.43;;;14.30;54.10;;;;;;4957087;28;20356;-71
2021/05/08 11:21:30;;;;;;;12.35;9.13;;;14.30;52.90;;;;;;4943677;28;20147;-71
2021/05/08 11:23:58;;;;;;;14.05;8.60;;;14.20;54.00;;;;;;4942672;28;20047;-71
2021/05/08 11:26:24;;;;;;;12.93;8.68;;;14.20;54.30;;;;;;4940458;28;20090;-71
2021/05/08 11:28:53;;;;;;;19.42;14.98;;;14.10;53.70;;;;;;4958567;28;20051;-71
2021/05/08 11:31:26;;;;;;;13.90;9.32;;;14.10;54.40;;;;;;4945594;28;20043;-71
2021/05/08 11:33:53;;;;;;;10.07;8.73;;;14.00;55.20;;;;;;4941266;28;20142;-71
2021/05/08 11:36:19;;;;;;;17.38;11.98;;;14.00;56.10;;;;;;4942320;28;20430;-71
2021/05/08 11:38:45;;;;;;;19.05;15.63;;;14.00;53.90;;;;;;4954230;28;20058;-71
2021/05/08 11:41:22;;;;;;;13.55;11.20;;;14.00;54.10;;;;;;4959697;28;20047;-71
2021/05/08 11:43:55;;;;;;;48.53;42.83;;;14.10;55.20;;;;;;4957573;28;20051;-72
2021/05/08 11:46:25;;;;;;;11.63;8.52;;;14.10;54.90;;;;;;4942533;28;21060;-72
2021/05/08 11:48:51;;;;;;;;;;;14.20;54.60;;;;;;4944489;28;20070;-71
2021/05/08 11:51:17;;;;;;;12.82;8.27;;;14.20;54.60;;;;;;4999460;28;19921;-70
2021/05/08 11:53:43;;;;;;;19.02;12.55;;;14.20;54.00;;;;;;4983053;28;20069;-72
2021/05/08 11:56:10;;;;;;;75.72;56.15;;;14.20;54.20;;;;;;4985830;28;20445;-72
2021/05/08 11:58:38;;;;;;;8.55;6.60;;;14.10;53.80;;;;;;5002339;28;20057;-72
2021/05/08 12:01:05;;;;;;;11.13;5.53;;;14.10;53.90;;;;;;5001089;28;20141;-71
2021/05/08 12:03:31;;;;;;;8.20;6.20;;;14.00;51.60;;;;;;5002346;28;20045;-72
2021/05/08 12:05:59;;;;;;;10.30;5.63;;;13.90;52.60;;;;;;5006134;28;20034;-72
2021/05/08 12:08:27;;;;;;;10.13;6.65;;;13.80;53.30;;;;;;5002636;28;20506;-72
2021/05/08 12:10:54;;;;;;;9.75;5.88;;;13.70;53.30;;;;;;5001539;28;20121;-71
2021/05/08 12:13:28;;;;;;;8.43;6.47;;;13.70;55.00;;;;;;5017431;28;20042;-70
2021/05/08 12:16:00;;;;;;;8.52;6.57;;;13.60;55.50;;;;;;5004812;28;20045;-72
2021/05/08 12:18:26;;;;;;;9.25;6.40;;;13.60;56.30;;;;;;5003267;28;20057;-72
2021/05/08 12:20:52;;;;;;;9.30;6.65;;;13.40;57.20;;;;;;4981164;28;20050;-70
2021/05/08 12:23:22;;;;;;;7.82;6.55;;;13.30;57.60;;;;;;4999861;28;21588;-71
2021/05/08 12:26:10;;;;;;;8.23;5.93;;;13.20;58.20;;;;;;4979435;28;20038;-71
2021/05/08 12:28:38;;;;;;;9.57;6.25;;;13.20;58.70;;;;;;4995137;28;20165;-71
2021/05/08 12:31:23;;;;;;;8.52;5.35;;;13.20;60.70;;;;;;4997364;28;20636;-71
2021/05/08 12:33:50;;;;;;;8.95;5.72;;;13.20;60.20;;;;;;4984526;28;20076;-71
2021/05/08 12:36:20;;;;;;;9.77;5.50;;;13.20;59.10;;;;;;4996495;28;20129;-70
2021/05/08 12:38:47;;;;;;;7.45;4.90;;;13.20;59.90;;;;;;4991170;28;20125;-71
2021/05/08 12:41:30;;;;;;;7.93;5.35;;;13.30;59.60;;;;;;5005800;28;20053;-71
2021/05/08 12:44:11;;;;;;;6.93;4.75;;;13.20;60.10;;;;;;5006002;28;20339;-70